createdAt,value
2022-11-24T00:01:07.319Z,3.72
2022-11-24T00:03:34.089Z,3.63
2022-11-24T00:06:09.460Z,2.70
2022-11-24T00:08:37.610Z,4.63
2022-11-24T00:11:10.065Z,7.22
2022-11-24T00:13:40.679Z,8.48
2022-11-24T00:16:13.009Z,4.40
2022-11-24T00:18:41.634Z,3.03
2022-11-24T00:21:08.127Z,3.90
2022-11-24T00:23:35.339Z,4.40
2022-11-24T00:26:10.581Z,4.03
2022-11-24T00:28:38.470Z,3.17
2022-11-24T00:31:17.416Z,3.38
2022-11-24T00:33:45.847Z,4.20
2022-11-24T00:36:12.309Z,2.22
2022-11-24T00:38:38.702Z,2.05
2022-11-24T00:41:05.763Z,3.50
2022-11-24T00:43:32.584Z,4.20
2022-11-24T00:45:59.023Z,3.40
2022-11-24T00:48:26.045Z,4.50
2022-11-24T00:51:04.063Z,3.72
2022-11-24T00:53:31.022Z,3.63
2022-11-24T00:55:57.598Z,4.30
2022-11-24T00:58:24.940Z,4.00
2022-11-24T01:00:52.530Z,4.28
2022-11-24T01:03:20.649Z,6.13
2022-11-24T01:05:47.078Z,4.72
2022-11-24T01:08:14.039Z,3.50
2022-11-24T01:10:40.483Z,3.92
2022-11-24T01:13:06.893Z,4.95
2022-11-24T01:15:36.013Z,3.63
2022-11-24T01:18:03.051Z,4.63
2022-11-24T01:20:29.798Z,8.00
2022-11-24T01:22:56.587Z,1.90
2022-11-24T01:25:22.989Z,5.88
2022-11-24T01:27:49.382Z,4.30
2022-11-24T01:30:16.245Z,6.82
2022-11-24T01:32:42.631Z,4.60
2022-11-24T01:35:10.035Z,3.78
2022-11-24T01:37:36.389Z,3.40
2022-11-24T01:40:02.844Z,4.97
2022-11-24T01:42:40.304Z,4.97
2022-11-24T01:45:41.346Z,2.95
2022-11-24T01:48:18.216Z,4.35
2022-11-24T01:50:49.492Z,3.42
2022-11-24T01:53:16.298Z,3.25
2022-11-24T01:55:42.993Z,1.90
2022-11-24T01:58:17.812Z,7.05
2022-11-24T02:00:45.197Z,7.20
2022-11-24T02:03:15.886Z,2.35
2022-11-24T02:05:54.254Z,6.70
2022-11-24T02:08:35.693Z,4.35
2022-11-24T02:11:05.394Z,5.10
2022-11-24T02:13:36.008Z,3.67
2022-11-24T02:16:03.120Z,3.55
2022-11-24T02:18:29.974Z,4.20
2022-11-24T02:20:56.797Z,5.57
2022-11-24T02:23:32.009Z,6.03
2022-11-24T02:26:10.366Z,4.90
2022-11-24T02:28:37.634Z,6.60
2022-11-24T02:31:05.576Z,6.10
2022-11-24T02:33:34.159Z,2.88
2022-11-24T02:36:01.152Z,4.80
2022-11-24T02:38:32.696Z,2.63
2022-11-24T02:41:03.174Z,4.47
2022-11-24T02:43:36.066Z,4.93
2022-11-24T02:46:02.524Z,3.13
2022-11-24T02:48:29.432Z,3.78
2022-11-24T02:50:56.277Z,5.47
2022-11-24T02:53:22.735Z,1.48
2022-11-24T02:55:49.118Z,8.38
2022-11-24T02:58:16.420Z,3.60
2022-11-24T03:00:42.797Z,2.67
2022-11-24T03:03:09.259Z,2.05
2022-11-24T03:05:36.160Z,1.70
2022-11-24T03:08:03.233Z,2.25
2022-11-24T03:10:29.633Z,2.05
2022-11-24T03:12:56.585Z,2.55
2022-11-24T03:15:23.646Z,2.67
2022-11-24T03:17:53.862Z,1.00
2022-11-24T03:20:20.646Z,2.60
2022-11-24T03:22:47.026Z,2.08
2022-11-24T03:25:13.413Z,3.40
2022-11-24T03:27:40.153Z,2.70
2022-11-24T03:30:07.323Z,2.80
2022-11-24T03:32:33.853Z,5.78
2022-11-24T03:35:00.949Z,4.90
2022-11-24T03:37:28.080Z,1.98
2022-11-24T03:39:54.435Z,1.60
2022-11-24T03:42:21.146Z,2.60
2022-11-24T03:44:47.542Z,2.78
2022-11-24T03:47:13.990Z,2.35
2022-11-24T03:49:41.424Z,4.63
2022-11-24T03:52:08.726Z,4.10
2022-11-24T03:54:35.930Z,3.95
2022-11-24T03:57:02.482Z,3.38
2022-11-24T03:59:28.866Z,6.18
2022-11-24T04:01:55.643Z,8.60
2022-11-24T04:04:22.058Z,4.93
2022-11-24T04:06:48.432Z,4.95
2022-11-24T04:09:15.537Z,6.93
2022-11-24T04:12:00.355Z,8.95
2022-11-24T04:14:27.039Z,3.65
2022-11-24T04:16:53.989Z,4.22
2022-11-24T04:19:20.326Z,2.85
2022-11-24T04:21:47.254Z,2.03
2022-11-24T04:24:14.608Z,3.15
2022-11-24T04:26:40.938Z,2.67
2022-11-24T04:29:07.729Z,2.15
2022-11-24T04:31:34.169Z,2.80
2022-11-24T04:34:00.532Z,2.13
2022-11-24T04:36:27.342Z,2.47
2022-11-24T04:39:19.375Z,2.47
2022-11-24T04:41:40.763Z,1.65
2022-11-24T04:44:07.114Z,1.90
2022-11-24T04:46:33.514Z,3.03
2022-11-24T04:49:00.241Z,2.10
2022-11-24T04:51:26.845Z,2.85
2022-11-24T04:53:53.150Z,2.50
2022-11-24T04:56:20.034Z,4.75
2022-11-24T04:58:48.940Z,3.70
2022-11-24T05:01:15.553Z,2.28
2022-11-24T05:03:42.257Z,6.18
2022-11-24T05:06:08.905Z,4.40
2022-11-24T05:08:35.502Z,6.28
2022-11-24T05:11:06.845Z,4.15
2022-11-24T05:13:33.356Z,8.18
2022-11-24T05:16:01.173Z,3.58
2022-11-24T05:18:28.049Z,3.90
2022-11-24T05:20:54.873Z,4.40
2022-11-24T05:23:21.315Z,6.32
2022-11-24T05:25:48.179Z,3.40
2022-11-24T05:28:14.569Z,5.93
2022-11-24T05:30:41.795Z,4.53
2022-11-24T05:33:12.041Z,3.47
2022-11-24T05:35:38.556Z,5.50
2022-11-24T05:38:05.522Z,4.18
2022-11-24T05:40:31.966Z,3.33
2022-11-24T05:42:58.293Z,6.28
2022-11-24T05:45:25.028Z,2.97
2022-11-24T05:47:51.566Z,3.90
2022-11-24T05:50:21.760Z,1.77
2022-11-24T05:52:49.599Z,5.50
2022-11-24T05:55:16.459Z,3.13
2022-11-24T05:57:43.004Z,5.50
2022-11-24T06:00:10.610Z,4.97
2022-11-24T06:02:37.441Z,4.68
2022-11-24T06:05:04.499Z,4.43
2022-11-24T06:07:30.848Z,3.72
2022-11-24T06:09:57.191Z,7.03
2022-11-24T06:12:23.528Z,6.43
2022-11-24T06:14:49.831Z,4.90
2022-11-24T06:17:16.134Z,5.22
2022-11-24T06:19:46.141Z,7.18
2022-11-24T06:22:12.546Z,6.28
2022-11-24T06:24:38.845Z,3.83
2022-11-24T06:27:05.758Z,6.40
2022-11-24T06:29:32.063Z,7.25
2022-11-24T06:31:58.435Z,7.18
2022-11-24T06:34:25.266Z,6.60
2022-11-24T06:36:51.569Z,8.20
2022-11-24T06:39:17.938Z,8.75
2022-11-24T06:41:44.810Z,11.80
2022-11-24T06:44:11.145Z,6.53
2022-11-24T06:46:37.487Z,7.75
2022-11-24T06:49:04.203Z,8.52
2022-11-24T06:51:30.526Z,5.43
2022-11-24T06:53:56.862Z,6.20
2022-11-24T06:56:23.674Z,11.25
2022-11-24T06:58:52.149Z,6.50
2022-11-24T07:01:24.937Z,8.38
2022-11-24T07:03:53.149Z,12.55
2022-11-24T07:06:20.721Z,11.43
2022-11-24T07:08:47.825Z,9.65
2022-11-24T07:11:17.198Z,11.55
2022-11-24T07:13:44.473Z,7.88
2022-11-24T07:16:20.183Z,5.82
2022-11-24T07:18:48.077Z,7.03
2022-11-24T07:21:14.805Z,5.65
2022-11-24T07:23:41.733Z,4.55
2022-11-24T07:26:08.963Z,3.88
2022-11-24T07:28:39.200Z,3.10
2022-11-24T07:31:19.174Z,1.98
2022-11-24T07:33:49.824Z,5.75
2022-11-24T07:36:16.662Z,4.43
2022-11-24T07:38:43.317Z,7.90
2022-11-24T07:41:12.448Z,5.63
2022-11-24T07:43:39.907Z,3.38
2022-11-24T07:46:08.747Z,3.35
2022-11-24T07:48:35.433Z,1.60
2022-11-24T07:51:04.435Z,4.53
2022-11-24T07:53:31.741Z,2.80
2022-11-24T07:56:00.257Z,2.55
2022-11-24T07:58:32.865Z,2.58
2022-11-24T08:00:59.748Z,1.02
2022-11-24T08:03:26.099Z,2.17
2022-11-24T08:08:46.944Z,2.03
2022-11-24T08:11:16.492Z,2.17
2022-11-24T08:13:43.569Z,2.92
2022-11-24T08:16:13.163Z,3.25
2022-11-24T08:18:39.610Z,8.40
2022-11-24T08:21:06.835Z,5.07
2022-11-24T08:23:34.511Z,6.43
2022-11-24T08:26:05.833Z,4.07
2022-11-24T08:28:32.790Z,4.18
2022-11-24T08:31:12.114Z,6.00
2022-11-24T08:33:39.170Z,4.82
2022-11-24T08:36:11.829Z,2.20
2022-11-24T08:38:39.028Z,5.70
2022-11-24T08:41:08.623Z,4.07
2022-11-24T08:43:35.272Z,3.00
2022-11-24T08:46:07.661Z,3.20
2022-11-24T08:48:34.847Z,7.60
2022-11-24T08:51:08.777Z,3.47
2022-11-24T08:53:35.096Z,5.03
2022-11-24T08:56:02.526Z,6.15
2022-11-24T08:58:30.191Z,5.68
2022-11-24T09:01:03.606Z,8.40
2022-11-24T09:03:29.952Z,5.20
2022-11-24T09:05:56.283Z,3.78
2022-11-24T09:08:22.925Z,4.60
2022-11-24T09:10:49.230Z,4.45
2022-11-24T09:13:15.551Z,3.60
2022-11-24T09:15:42.227Z,8.77
2022-11-24T09:18:08.594Z,2.85
2022-11-24T09:20:34.977Z,3.28
2022-11-24T09:23:01.709Z,4.47
2022-11-24T09:25:28.025Z,2.90
2022-11-24T09:27:55.239Z,3.33
2022-11-24T09:30:23.069Z,4.13
2022-11-24T09:32:49.407Z,5.13
2022-11-24T09:35:16.167Z,7.75
2022-11-24T09:37:44.634Z,9.55
2022-11-24T09:40:14.156Z,4.47
2022-11-24T09:43:00.822Z,4.53
2022-11-24T09:46:04.411Z,3.60
2022-11-24T09:48:37.729Z,6.85
2022-11-24T09:51:05.973Z,3.83
2022-11-24T09:53:37.381Z,5.30
2022-11-24T09:56:21.235Z,4.55
2022-11-24T09:59:18.534Z,4.55
2022-11-24T10:01:47.318Z,5.15
2022-11-24T10:04:24.828Z,6.13
2022-11-24T10:07:04.956Z,4.97
2022-11-24T10:09:58.786Z,4.57
2022-11-24T10:12:47.300Z,3.65
2022-11-24T10:15:21.895Z,2.75
2022-11-24T10:18:16.688Z,3.72
2022-11-24T10:20:56.953Z,2.17
2022-11-24T10:23:41.799Z,4.68
2022-11-24T10:26:18.346Z,3.13
2022-11-24T10:28:52.203Z,3.17
2022-11-24T10:31:42.375Z,4.53
2022-11-24T10:34:18.416Z,1.75
2022-11-24T10:37:04.189Z,4.28
2022-11-24T10:39:50.460Z,2.40
2022-11-24T10:42:29.149Z,1.45
2022-11-24T10:45:09.130Z,1.35
2022-11-24T10:47:35.996Z,1.48
2022-11-24T10:50:32.858Z,2.20
2022-11-24T10:53:34.274Z,2.08
2022-11-24T10:56:04.390Z,2.22
2022-11-24T10:58:38.266Z,4.55
2022-11-24T11:01:13.924Z,4.70
2022-11-24T11:03:49.837Z,0.88
2022-11-24T11:06:25.178Z,2.67
2022-11-24T11:09:07.293Z,1.50
2022-11-24T11:11:39.695Z,1.45
2022-11-24T11:14:07.988Z,2.22
2022-11-24T11:16:42.783Z,2.28
2022-11-24T11:22:25.694Z,0.45
2022-11-24T11:25:12.548Z,1.00
2022-11-24T11:27:41.261Z,1.63
2022-11-24T11:36:14.479Z,1.65
2022-11-24T11:38:43.529Z,2.70
2022-11-24T11:41:19.214Z,1.40
2022-11-24T11:43:50.658Z,3.30
2022-11-24T11:46:17.384Z,1.42
2022-11-24T11:48:46.595Z,1.20
2022-11-24T11:51:34.594Z,1.45
2022-11-24T11:54:31.021Z,1.50
2022-11-24T11:57:10.482Z,1.13
2022-11-24T11:59:47.211Z,0.43
2022-11-24T12:02:48.564Z,0.65
2022-11-24T12:05:34.862Z,3.15
2022-11-24T12:08:20.733Z,1.52
2022-11-24T12:10:50.518Z,2.30
2022-11-24T12:13:40.411Z,1.08
2022-11-24T12:16:16.621Z,0.80
2022-11-24T12:18:58.274Z,1.33
2022-11-24T12:22:04.042Z,3.80
2022-11-24T12:25:15.604Z,1.05
2022-11-24T12:27:49.867Z,1.30
2022-11-24T12:30:17.883Z,3.47
2022-11-24T12:33:09.741Z,3.15
2022-11-24T12:36:13.577Z,0.70
2022-11-24T12:39:02.309Z,1.75
2022-11-24T12:42:10.481Z,1.38
2022-11-24T12:44:49.332Z,1.67
2022-11-24T12:47:27.117Z,1.08
2022-11-24T12:50:10.137Z,1.50
2022-11-24T12:52:46.548Z,1.55
2022-11-24T12:55:18.699Z,1.05
2022-11-24T12:57:58.610Z,2.55
2022-11-24T13:00:53.111Z,3.20
2022-11-24T13:04:00.714Z,3.72
2022-11-24T13:06:52.218Z,1.50
2022-11-24T13:09:18.838Z,0.65
2022-11-24T13:11:51.460Z,1.77
2022-11-24T13:14:37.524Z,0.50
2022-11-24T13:17:39.336Z,4.80
2022-11-24T13:20:19.050Z,2.70
2022-11-24T13:23:05.184Z,3.20
2022-11-24T13:25:35.872Z,1.95
2022-11-24T13:28:06.528Z,2.08
2022-11-24T13:30:35.912Z,4.78
2022-11-24T13:33:31.527Z,2.28
2022-11-24T13:36:07.750Z,2.33
2022-11-24T13:38:51.147Z,1.25
2022-11-24T13:41:32.656Z,3.40
2022-11-24T13:44:15.043Z,0.88
2022-11-24T13:47:06.676Z,1.27
2022-11-24T13:49:41.276Z,1.60
2022-11-24T13:52:35.781Z,1.67
2022-11-24T13:55:10.035Z,4.40
2022-11-24T13:57:43.736Z,6.93
2022-11-24T14:00:21.062Z,3.60
2022-11-24T14:02:48.393Z,2.97
2022-11-24T14:05:16.963Z,3.85
2022-11-24T14:07:47.129Z,3.97
2022-11-24T14:10:20.197Z,4.65
2022-11-24T14:12:46.827Z,4.20
2022-11-24T14:15:29.954Z,2.10
2022-11-24T14:17:56.275Z,2.50
2022-11-24T14:20:25.493Z,3.58
2022-11-24T14:22:52.596Z,1.60
2022-11-24T14:25:30.686Z,1.60
2022-11-24T14:27:59.094Z,1.40
2022-11-24T14:30:26.317Z,1.83
2022-11-24T14:32:57.829Z,1.92
2022-11-24T14:35:32.953Z,6.32
2022-11-24T14:38:02.673Z,4.63
2022-11-24T14:40:39.929Z,1.77
2022-11-24T14:43:17.653Z,4.95
2022-11-24T14:46:04.995Z,4.65
2022-11-24T14:48:48.955Z,0.88
2022-11-24T14:51:20.906Z,1.50
2022-11-24T14:53:54.959Z,3.50
2022-11-24T14:56:31.733Z,3.85
2022-11-24T14:58:59.390Z,4.75
2022-11-24T15:01:29.246Z,1.70
2022-11-24T15:07:26.986Z,1.42
2022-11-24T15:09:57.930Z,3.75
2022-11-24T15:12:24.521Z,4.25
2022-11-24T15:14:54.377Z,2.28
2022-11-24T15:17:24.508Z,4.75
2022-11-24T15:19:58.627Z,4.78
2022-11-24T15:22:40.597Z,3.42
2022-11-24T15:25:26.529Z,2.50
2022-11-24T15:27:53.274Z,6.32
2022-11-24T15:30:19.885Z,3.55
2022-11-24T15:32:51.419Z,3.40
2022-11-24T15:35:17.941Z,6.00
2022-11-24T15:37:44.592Z,4.10
2022-11-24T15:40:12.173Z,2.20
2022-11-24T15:42:38.515Z,3.65
2022-11-24T15:45:05.543Z,5.25
2022-11-24T15:47:32.242Z,3.13
2022-11-24T15:49:58.561Z,3.78
2022-11-24T15:52:24.903Z,6.65
2022-11-24T15:54:55.693Z,5.53
2022-11-24T15:57:22.098Z,2.92
2022-11-24T15:59:48.436Z,4.63
2022-11-24T16:02:14.857Z,6.18
2022-11-24T16:04:41.629Z,2.40
2022-11-24T16:07:14.491Z,4.90
2022-11-24T16:09:41.622Z,2.13
2022-11-24T16:12:08.379Z,2.72
2022-11-24T16:14:36.143Z,3.55
2022-11-24T16:17:03.457Z,4.00
2022-11-24T16:19:29.762Z,3.15
2022-11-24T16:21:56.066Z,4.03
2022-11-24T16:24:22.795Z,2.33
2022-11-24T16:26:49.218Z,3.00
2022-11-24T16:29:15.586Z,3.47
2022-11-24T16:31:43.401Z,3.25
2022-11-24T16:34:10.050Z,3.13
2022-11-24T16:36:36.366Z,2.92
2022-11-24T16:39:03.076Z,1.45
2022-11-24T16:41:29.578Z,1.88
2022-11-24T16:43:56.525Z,0.73
2022-11-24T16:46:25.031Z,2.58
2022-11-24T16:48:53.253Z,4.70
2022-11-24T16:51:22.349Z,5.93
2022-11-24T16:53:56.522Z,3.67
2022-11-24T16:56:22.858Z,4.63
2022-11-24T16:58:49.176Z,4.80
2022-11-24T17:01:15.939Z,3.60
2022-11-24T17:03:42.389Z,3.47
2022-11-24T17:06:11.742Z,3.85
2022-11-24T17:08:40.306Z,2.70
2022-11-24T17:11:10.812Z,2.78
2022-11-24T17:13:38.242Z,2.20
2022-11-24T17:16:06.496Z,7.55
2022-11-24T17:18:34.105Z,3.80
2022-11-24T17:21:07.641Z,1.55
2022-11-24T17:23:35.670Z,4.60
2022-11-24T17:26:03.943Z,4.32
2022-11-24T17:28:30.480Z,2.92
2022-11-24T17:30:57.183Z,2.97
2022-11-24T17:33:23.915Z,4.70
2022-11-24T17:35:50.258Z,5.65
2022-11-24T17:38:16.584Z,6.20
2022-11-24T17:40:48.313Z,4.65
2022-11-24T17:43:14.646Z,3.90
2022-11-24T17:45:41.602Z,6.47
2022-11-24T17:48:08.328Z,5.20
2022-11-24T17:50:34.838Z,3.85
2022-11-24T17:53:01.578Z,3.63
2022-11-24T17:55:27.887Z,2.47
2022-11-24T17:57:55.780Z,2.35
2022-11-24T18:00:22.340Z,4.47
2022-11-24T18:02:48.732Z,4.63
2022-11-24T18:05:15.716Z,3.40
2022-11-24T18:07:42.101Z,3.35
2022-11-24T18:10:08.747Z,4.72
2022-11-24T18:12:35.426Z,6.72
2022-11-24T18:15:01.850Z,5.22
2022-11-24T18:17:28.955Z,3.00
2022-11-24T18:19:55.742Z,3.55
2022-11-24T18:22:42.830Z,3.15
2022-11-24T18:25:08.817Z,3.90
2022-11-24T18:27:35.149Z,3.25
2022-11-24T18:30:01.458Z,3.38
2022-11-24T18:32:28.460Z,3.63
2022-11-24T18:34:54.802Z,4.43
2022-11-24T18:37:21.159Z,5.45
2022-11-24T18:39:47.848Z,9.95
2022-11-24T18:42:14.170Z,5.38
2022-11-24T18:44:42.248Z,7.43
2022-11-24T18:47:09.182Z,7.97
2022-11-24T18:49:35.572Z,8.60
2022-11-24T18:52:01.908Z,6.25
2022-11-24T18:54:28.713Z,4.65
2022-11-24T18:56:57.756Z,3.83
2022-11-24T18:59:28.623Z,5.82
2022-11-24T19:01:56.376Z,3.80
2022-11-24T19:04:23.914Z,3.85
2022-11-24T19:06:50.690Z,4.18
2022-11-24T19:09:22.594Z,6.53
2022-11-24T19:11:49.049Z,8.68
2022-11-24T19:14:18.073Z,7.60
2022-11-24T19:16:47.461Z,7.72
2022-11-24T19:19:13.961Z,8.13
2022-11-24T19:21:41.492Z,8.43
2022-11-24T19:24:13.087Z,11.43
2022-11-24T19:26:40.214Z,9.63
2022-11-24T19:29:08.110Z,12.70
2022-11-24T19:31:35.172Z,10.45
2022-11-24T19:34:02.915Z,9.80
2022-11-24T19:36:29.775Z,8.45
2022-11-24T19:38:57.661Z,17.85
2022-11-24T19:41:26.600Z,14.77
2022-11-24T19:43:56.817Z,21.40
2022-11-24T19:46:26.946Z,14.50
2022-11-24T19:48:56.430Z,17.13
2022-11-24T19:51:25.733Z,16.10
2022-11-24T19:53:53.435Z,16.88
2022-11-24T19:56:21.437Z,19.33
2022-11-24T19:58:49.562Z,17.98
2022-11-24T20:01:22.551Z,18.42
2022-11-24T20:03:59.815Z,13.68
2022-11-24T20:06:32.078Z,8.82
2022-11-24T20:09:00.303Z,15.85
2022-11-24T20:11:27.834Z,15.63
2022-11-24T20:13:55.308Z,16.67
2022-11-24T20:16:26.524Z,12.52
2022-11-24T20:18:55.386Z,14.68
2022-11-24T20:21:24.517Z,13.75
2022-11-24T20:23:59.786Z,14.35
2022-11-24T20:26:29.605Z,14.07
2022-11-24T20:28:57.390Z,12.20
2022-11-24T20:31:27.654Z,9.73
2022-11-24T20:33:54.021Z,12.20
2022-11-24T20:36:23.569Z,11.82
2022-11-24T20:38:51.757Z,9.82
2022-11-24T20:41:19.863Z,9.85
2022-11-24T20:43:48.067Z,14.02
2022-11-24T20:46:19.775Z,18.15
2022-11-24T20:48:46.557Z,20.42
2022-11-24T20:51:16.264Z,16.98
2022-11-24T20:53:42.626Z,14.60
2022-11-24T20:56:19.213Z,10.50
2022-11-24T20:58:45.615Z,13.80
2022-11-24T21:01:18.641Z,12.20
2022-11-24T21:03:46.502Z,13.15
2022-11-24T21:06:14.121Z,9.43
2022-11-24T21:08:42.271Z,11.82
2022-11-24T21:11:12.048Z,7.57
2022-11-24T21:13:40.462Z,9.10
2022-11-24T21:16:15.140Z,10.25
2022-11-24T21:18:42.901Z,7.55
2022-11-24T21:21:09.562Z,7.75
2022-11-24T21:23:36.656Z,4.20
2022-11-24T21:26:07.384Z,8.40
2022-11-24T21:28:35.805Z,6.05
2022-11-24T21:31:07.917Z,7.45
2022-11-24T21:33:34.606Z,8.52
2022-11-24T21:36:02.933Z,6.03
2022-11-24T21:38:29.985Z,8.90
2022-11-24T21:41:05.921Z,11.10
2022-11-24T21:43:33.070Z,6.72
2022-11-24T21:46:07.542Z,7.68
2022-11-24T21:48:35.552Z,9.35
2022-11-24T21:51:04.898Z,10.60
2022-11-24T21:53:34.036Z,11.60
2022-11-24T21:56:03.450Z,8.98
2022-11-24T21:58:29.817Z,12.18
2022-11-24T22:01:02.525Z,16.85
2022-11-24T22:03:28.937Z,15.02
2022-11-24T22:05:56.994Z,11.63
2022-11-24T22:08:25.642Z,10.48
2022-11-24T22:10:53.017Z,11.20
2022-11-24T22:13:19.955Z,10.75
2022-11-24T22:15:46.299Z,10.25
2022-11-24T22:18:13.144Z,10.27
2022-11-24T22:20:39.502Z,6.63
2022-11-24T22:23:05.846Z,5.95
2022-11-24T22:25:33.714Z,6.35
2022-11-24T22:28:00.225Z,3.60
2022-11-24T22:30:26.989Z,3.20
2022-11-24T22:32:53.669Z,2.92
2022-11-24T22:35:20.034Z,2.50
2022-11-24T22:37:46.826Z,3.25
2022-11-24T22:40:13.247Z,3.60
2022-11-24T22:42:39.577Z,2.78
2022-11-24T22:45:06.994Z,3.72
2022-11-24T22:47:33.325Z,3.75
2022-11-24T22:49:59.629Z,3.00
2022-11-24T22:52:26.312Z,2.38
2022-11-24T22:54:52.626Z,3.58
2022-11-24T22:57:18.934Z,6.82
2022-11-24T22:59:45.601Z,4.13
2022-11-24T23:02:11.910Z,5.68
2022-11-24T23:04:38.329Z,3.58
2022-11-24T23:07:05.001Z,6.60
2022-11-24T23:09:31.310Z,5.45
2022-11-24T23:11:57.615Z,5.43
2022-11-24T23:14:24.287Z,2.85
2022-11-24T23:16:50.695Z,3.33
2022-11-24T23:19:17.761Z,3.13
2022-11-24T23:21:44.660Z,1.75
2022-11-24T23:24:11.142Z,3.05
2022-11-24T23:26:39.860Z,2.13
2022-11-24T23:29:07.858Z,2.88
2022-11-24T23:31:34.312Z,2.60
2022-11-24T23:34:03.697Z,2.58
2022-11-24T23:36:30.731Z,1.90
2022-11-24T23:39:06.965Z,4.10
2022-11-24T23:41:33.442Z,3.35
2022-11-24T23:44:00.541Z,5.05
2022-11-24T23:46:27.699Z,3.03
2022-11-24T23:48:54.997Z,6.00
2022-11-24T23:51:32.949Z,5.68
2022-11-24T23:54:00.536Z,4.43
2022-11-24T23:56:32.220Z,4.78
2022-11-24T23:59:00.097Z,4.25
